createdAt,value
2023-01-22T00:01:09.378Z,102424.66
2023-01-22T00:03:38.052Z,102427.44
2023-01-22T00:06:05.807Z,102424.81
2023-01-22T00:08:35.409Z,102419.59
2023-01-22T00:11:02.487Z,102417.88
2023-01-22T00:13:30.173Z,102422.31
2023-01-22T00:15:58.598Z,102413.56
2023-01-22T00:18:26.012Z,102394.31
2023-01-22T00:20:55.431Z,102397.84
2023-01-22T00:23:23.830Z,102385.59
2023-01-22T00:26:00.176Z,102388.22
2023-01-22T00:28:27.204Z,102384.75
2023-01-22T00:31:01.215Z,102386.53
2023-01-22T00:33:29.243Z,102371.63
2023-01-22T00:35:56.486Z,102371.63
2023-01-22T00:38:23.399Z,102384.88
2023-01-22T00:40:50.614Z,102386.69
2023-01-22T00:43:17.621Z,102399.03
2023-01-22T00:45:44.662Z,102390.22
2023-01-22T00:48:11.523Z,102390.28
2023-01-22T00:50:38.586Z,102386.81
2023-01-22T00:53:05.476Z,102385.06
2023-01-22T00:55:32.399Z,102390.34
2023-01-22T00:57:59.315Z,102390.41
2023-01-22T01:00:26.421Z,102384.25
2023-01-22T01:03:12.111Z,102379.00
2023-01-22T01:05:39.013Z,102364.09
2023-01-22T01:08:06.331Z,102355.25
2023-01-22T01:10:33.363Z,102355.25
2023-01-22T01:13:00.407Z,102357.06
2023-01-22T01:15:27.313Z,102365.03
2023-01-22T01:17:54.229Z,102366.00
2023-01-22T01:20:21.138Z,102372.97
2023-01-22T01:22:48.030Z,102369.53
2023-01-22T01:25:14.947Z,102368.69
2023-01-22T01:27:41.846Z,102377.44
2023-01-22T01:30:09.445Z,102357.25
2023-01-22T01:32:36.321Z,102354.59
2023-01-22T01:35:03.259Z,102360.75
2023-01-22T01:37:30.099Z,102364.25
2023-01-22T01:39:56.939Z,102366.06
2023-01-22T01:42:31.913Z,102368.75
2023-01-22T01:45:21.834Z,102372.28
2023-01-22T01:48:21.096Z,102370.50
2023-01-22T01:50:54.424Z,102367.00
2023-01-22T01:53:21.312Z,102362.63
2023-01-22T01:55:49.014Z,102364.34
2023-01-22T01:58:21.881Z,102362.63
2023-01-22T02:00:55.309Z,102352.09
2023-01-22T02:03:22.737Z,102348.63
2023-01-22T02:05:49.692Z,102366.16
2023-01-22T02:08:17.125Z,102360.88
2023-01-22T02:10:44.786Z,102364.41
2023-01-22T02:13:17.129Z,102359.13
2023-01-22T02:15:44.251Z,102358.25
2023-01-22T02:18:11.374Z,102359.13
2023-01-22T02:20:40.078Z,102356.50
2023-01-22T02:23:07.574Z,102353.00
2023-01-22T02:25:34.560Z,102361.75
2023-01-22T02:28:01.464Z,102352.09
2023-01-22T02:30:28.765Z,102353.88
2023-01-22T02:32:55.674Z,102352.97
2023-01-22T02:35:22.534Z,102351.22
2023-01-22T02:37:49.523Z,102351.22
2023-01-22T02:40:16.905Z,102348.53
2023-01-22T02:42:44.037Z,102335.34
2023-01-22T02:45:11.384Z,102345.88
2023-01-22T02:47:38.311Z,102331.81
2023-01-22T02:50:05.739Z,102325.59
2023-01-22T02:52:32.619Z,102329.16
2023-01-22T02:54:59.593Z,102331.75
2023-01-22T02:57:26.526Z,102327.34
2023-01-22T02:59:53.337Z,102331.72
2023-01-22T03:02:20.335Z,102322.06
2023-01-22T03:04:50.381Z,102326.47
2023-01-22T03:07:18.487Z,102323.72
2023-01-22T03:09:45.926Z,102334.28
2023-01-22T03:12:13.100Z,102341.31
2023-01-22T03:14:58.277Z,102341.31
2023-01-22T03:17:43.584Z,102339.56
2023-01-22T03:20:31.921Z,102332.44
2023-01-22T03:22:58.821Z,102340.34
2023-01-22T03:25:25.688Z,102335.09
2023-01-22T03:28:15.223Z,102339.47
2023-01-22T03:30:42.039Z,102330.75
2023-01-22T03:33:08.915Z,102335.09
2023-01-22T03:35:35.742Z,102332.44
2023-01-22T03:38:02.550Z,102334.13
2023-01-22T03:40:29.514Z,102327.97
2023-01-22T03:42:56.373Z,102323.59
2023-01-22T03:45:23.185Z,102319.16
2023-01-22T03:47:51.657Z,102327.06
2023-01-22T03:50:18.835Z,102318.28
2023-01-22T03:52:45.873Z,102321.81
2023-01-22T03:55:12.725Z,102322.69
2023-01-22T03:57:39.532Z,102321.81
2023-01-22T04:00:07.882Z,102323.53
2023-01-22T04:02:34.947Z,102317.41
2023-01-22T04:05:01.829Z,102319.16
2023-01-22T04:07:28.740Z,102318.19
2023-01-22T04:09:55.575Z,102303.25
2023-01-22T04:12:22.391Z,102295.41
2023-01-22T04:14:49.182Z,102308.59
2023-01-22T04:17:16.028Z,102302.31
2023-01-22T04:19:42.886Z,102304.13
2023-01-22T04:22:09.678Z,102288.28
2023-01-22T04:24:37.003Z,102290.91
2023-01-22T04:27:03.920Z,102284.72
2023-01-22T04:29:30.705Z,102279.44
2023-01-22T04:31:57.604Z,102288.22
2023-01-22T04:34:24.439Z,102284.72
2023-01-22T04:36:51.277Z,102281.19
2023-01-22T04:39:18.126Z,102289.97
2023-01-22T04:41:45.220Z,102284.63
2023-01-22T04:44:12.241Z,102277.63
2023-01-22T04:46:39.089Z,102272.25
2023-01-22T04:49:05.887Z,102272.25
2023-01-22T04:51:32.679Z,102274.00
2023-01-22T04:53:59.487Z,102263.44
2023-01-22T04:56:26.309Z,102269.59
2023-01-22T04:58:53.092Z,102267.78
2023-01-22T05:01:19.975Z,102260.81
2023-01-22T05:03:46.868Z,102264.25
2023-01-22T05:06:13.742Z,102267.78
2023-01-22T05:08:40.723Z,102280.09
2023-01-22T05:11:07.595Z,102273.94
2023-01-22T05:13:34.470Z,102271.25
2023-01-22T05:16:01.385Z,102262.34
2023-01-22T05:18:28.347Z,102275.56
2023-01-22T05:20:55.176Z,102281.78
2023-01-22T05:23:21.969Z,102274.69
2023-01-22T05:25:50.296Z,102270.28
2023-01-22T05:28:17.183Z,102268.47
2023-01-22T05:30:44.047Z,102282.53
2023-01-22T05:33:11.544Z,102283.41
2023-01-22T05:35:38.694Z,102286.88
2023-01-22T05:38:05.512Z,102283.28
2023-01-22T05:40:32.374Z,102284.16
2023-01-22T05:42:59.221Z,102278.88
2023-01-22T05:45:26.049Z,102284.16
2023-01-22T05:47:53.874Z,102283.22
2023-01-22T05:50:22.194Z,102281.50
2023-01-22T05:52:54.834Z,102277.13
2023-01-22T05:55:21.873Z,102282.47
2023-01-22T05:57:49.181Z,102287.59
2023-01-22T06:00:17.222Z,102286.78
2023-01-22T06:02:44.581Z,102294.66
2023-01-22T06:05:11.632Z,102297.28
2023-01-22T06:07:38.551Z,102296.34
2023-01-22T06:10:05.950Z,102295.47
2023-01-22T06:12:33.299Z,102285.78
2023-01-22T06:15:00.149Z,102276.03
2023-01-22T06:17:26.954Z,102276.09
2023-01-22T06:19:53.790Z,102268.22
2023-01-22T06:22:20.713Z,102274.34
2023-01-22T06:24:47.609Z,102274.34
2023-01-22T06:27:14.586Z,102280.38
2023-01-22T06:29:41.404Z,102272.50
2023-01-22T06:32:08.848Z,102265.38
2023-01-22T06:34:35.759Z,102259.25
2023-01-22T06:37:02.886Z,102261.91
2023-01-22T06:39:29.795Z,102270.69
2023-01-22T06:41:56.684Z,102267.16
2023-01-22T06:44:23.611Z,102280.38
2023-01-22T06:46:50.656Z,102283.00
2023-01-22T06:49:17.560Z,102286.50
2023-01-22T06:51:44.344Z,102280.28
2023-01-22T06:54:14.381Z,102280.31
2023-01-22T06:56:41.364Z,102273.22
2023-01-22T06:59:08.440Z,102280.28
2023-01-22T07:01:35.555Z,102281.09
2023-01-22T07:04:02.728Z,102267.03
2023-01-22T07:06:29.902Z,102262.56
2023-01-22T07:08:57.222Z,102268.72
2023-01-22T07:11:24.101Z,102267.94
2023-01-22T07:13:50.961Z,102269.59
2023-01-22T07:16:17.894Z,102267.03
2023-01-22T07:18:44.789Z,102265.19
2023-01-22T07:21:13.135Z,102257.28
2023-01-22T07:23:40.480Z,102253.75
2023-01-22T07:26:07.367Z,102253.75
2023-01-22T07:28:34.566Z,102255.50
2023-01-22T07:31:03.784Z,102261.59
2023-01-22T07:33:30.754Z,102267.75
2023-01-22T07:35:58.385Z,102276.63
2023-01-22T07:38:28.020Z,102281.78
2023-01-22T07:41:00.356Z,102283.63
2023-01-22T07:43:27.201Z,102289.72
2023-01-22T07:45:54.326Z,102293.28
2023-01-22T07:48:21.293Z,102282.72
2023-01-22T07:50:48.245Z,102290.66
2023-01-22T07:53:15.200Z,102301.16
2023-01-22T07:55:42.126Z,102305.56
2023-01-22T07:58:09.061Z,102285.38
2023-01-22T08:00:36.247Z,102277.50
2023-01-22T08:03:07.242Z,102280.97
2023-01-22T08:05:34.463Z,102305.41
2023-01-22T08:08:01.507Z,102293.78
2023-01-22T08:10:28.514Z,102289.25
2023-01-22T08:12:55.347Z,102289.13
2023-01-22T08:15:22.337Z,102305.75
2023-01-22T08:17:51.354Z,102303.13
2023-01-22T08:20:18.664Z,102297.84
2023-01-22T08:22:45.954Z,102276.88
2023-01-22T08:25:13.036Z,102276.94
2023-01-22T08:27:39.916Z,102297.28
2023-01-22T08:30:09.104Z,102297.34
2023-01-22T08:32:36.040Z,102286.69
2023-01-22T08:35:02.953Z,102277.75
2023-01-22T08:37:29.841Z,102276.84
2023-01-22T08:39:56.770Z,102290.81
2023-01-22T08:42:23.857Z,102305.69
2023-01-22T08:44:50.767Z,102317.97
2023-01-22T08:47:17.785Z,102323.19
2023-01-22T08:49:44.712Z,102322.16
2023-01-22T08:52:11.634Z,102323.91
2023-01-22T08:54:38.552Z,102336.19
2023-01-22T08:57:05.645Z,102336.16
2023-01-22T08:59:32.472Z,102341.44
2023-01-22T09:02:00.285Z,102331.72
2023-01-22T09:04:27.779Z,102321.03
2023-01-22T09:06:55.393Z,102312.16
2023-01-22T09:09:22.688Z,102313.94
2023-01-22T09:11:49.874Z,102324.41
2023-01-22T09:14:16.932Z,102330.50
2023-01-22T09:16:43.903Z,102331.56
2023-01-22T09:19:11.425Z,102338.69
2023-01-22T09:21:38.585Z,102343.16
2023-01-22T09:24:06.811Z,102351.53
2023-01-22T09:26:34.347Z,102352.47
2023-01-22T09:29:01.878Z,102359.31
2023-01-22T09:31:29.024Z,102366.28
2023-01-22T09:33:56.109Z,102375.81
2023-01-22T09:36:23.033Z,102386.19
2023-01-22T09:38:50.156Z,102389.56
2023-01-22T09:41:25.915Z,102382.41
2023-01-22T09:43:57.931Z,102370.84
2023-01-22T09:46:37.099Z,102365.41
2023-01-22T09:49:12.041Z,102362.66
2023-01-22T09:51:39.688Z,102357.28
2023-01-22T09:54:09.095Z,102364.25
2023-01-22T09:56:42.008Z,102365.06
2023-01-22T09:59:16.592Z,102376.38
2023-01-22T10:01:48.251Z,102383.31
2023-01-22T10:04:29.667Z,102371.28
2023-01-22T10:06:59.068Z,102369.53
2023-01-22T10:09:31.601Z,102365.84
2023-01-22T10:12:00.132Z,102367.53
2023-01-22T10:14:29.847Z,102368.34
2023-01-22T10:17:00.600Z,102367.44
2023-01-22T10:19:45.593Z,102361.22
2023-01-22T10:22:19.707Z,102356.81
2023-01-22T10:24:46.657Z,102347.91
2023-01-22T10:27:17.388Z,102345.25
2023-01-22T10:30:14.882Z,102346.00
2023-01-22T10:32:42.263Z,102355.59
2023-01-22T10:35:11.998Z,102357.28
2023-01-22T10:37:46.905Z,102359.03
2023-01-22T10:40:21.963Z,102366.00
2023-01-22T10:43:01.498Z,102361.53
2023-01-22T10:45:28.647Z,102357.03
2023-01-22T10:48:16.096Z,102359.69
2023-01-22T10:50:45.527Z,102362.28
2023-01-22T10:53:19.691Z,102363.13
2023-01-22T10:55:53.341Z,102360.38
2023-01-22T10:58:23.535Z,102367.41
2023-01-22T11:00:59.828Z,102361.19
2023-01-22T11:03:33.654Z,102358.59
2023-01-22T11:06:05.793Z,102367.41
2023-01-22T11:08:43.414Z,102363.78
2023-01-22T11:11:13.278Z,102365.53
2023-01-22T11:13:58.817Z,102359.34
2023-01-22T11:16:25.795Z,102359.28
2023-01-22T11:18:55.786Z,102362.81
2023-01-22T11:21:34.223Z,102376.03
2023-01-22T11:24:28.423Z,102380.50
2023-01-22T11:27:22.583Z,102374.44
2023-01-22T11:30:08.137Z,102380.59
2023-01-22T11:33:16.135Z,102374.44
2023-01-22T11:35:58.967Z,102357.69
2023-01-22T11:38:36.724Z,102360.38
2023-01-22T11:41:16.788Z,102358.66
2023-01-22T11:43:56.023Z,102363.25
2023-01-22T11:46:28.788Z,102366.72
2023-01-22T11:49:33.843Z,102357.28
2023-01-22T11:52:31.558Z,102343.41
2023-01-22T11:55:07.499Z,102350.47
2023-01-22T11:57:39.168Z,102354.00
2023-01-22T12:00:27.861Z,102353.81
2023-01-22T12:03:28.844Z,102346.69
2023-01-22T12:06:16.569Z,102354.63
2023-01-22T12:08:46.420Z,102358.16
2023-01-22T12:11:18.982Z,102347.59
2023-01-22T12:14:30.711Z,102351.03
2023-01-22T12:17:05.111Z,102344.84
2023-01-22T12:20:08.635Z,102337.66
2023-01-22T12:22:52.663Z,102341.03
2023-01-22T12:25:29.041Z,102336.59
2023-01-22T12:28:03.059Z,102336.41
2023-01-22T12:31:00.430Z,102337.13
2023-01-22T12:33:31.381Z,102344.94
2023-01-22T12:36:02.284Z,102344.84
2023-01-22T12:38:48.050Z,102339.38
2023-01-22T12:41:48.911Z,102341.81
2023-01-22T12:44:37.876Z,102334.63
2023-01-22T12:47:35.249Z,102330.03
2023-01-22T12:50:04.695Z,102330.75
2023-01-22T12:52:32.318Z,102317.41
2023-01-22T12:55:00.315Z,102327.03
2023-01-22T12:57:39.919Z,102325.16
2023-01-22T13:00:30.550Z,102321.47
2023-01-22T13:02:58.886Z,102323.13
2023-01-22T13:05:31.552Z,102333.63
2023-01-22T13:08:39.335Z,102323.75
2023-01-22T13:11:13.084Z,102316.63
2023-01-22T13:13:46.031Z,102315.56
2023-01-22T13:16:15.821Z,102322.63
2023-01-22T13:18:47.963Z,102319.91
2023-01-22T13:21:17.756Z,102315.41
2023-01-22T13:23:47.311Z,102309.19
2023-01-22T13:26:27.426Z,102318.81
2023-01-22T13:29:20.583Z,102314.31
2023-01-22T13:32:16.616Z,102319.50
2023-01-22T13:34:43.601Z,102327.34
2023-01-22T13:37:24.923Z,102326.31
2023-01-22T13:39:51.866Z,102322.84
2023-01-22T13:42:19.083Z,102321.91
2023-01-22T13:44:52.346Z,102324.69
2023-01-22T13:47:30.444Z,102329.16
2023-01-22T13:49:57.882Z,102326.69
2023-01-22T13:52:25.526Z,102337.44
2023-01-22T13:55:07.783Z,102318.19
2023-01-22T13:57:34.752Z,102326.16
2023-01-22T14:00:02.919Z,102320.97
2023-01-22T14:02:33.005Z,102316.63
2023-01-22T14:05:00.587Z,102336.84
2023-01-22T14:07:28.692Z,102339.50
2023-01-22T14:09:57.662Z,102346.50
2023-01-22T14:12:27.574Z,102347.38
2023-01-22T14:14:55.247Z,102350.00
2023-01-22T14:17:22.171Z,102350.00
2023-01-22T14:19:49.144Z,102360.47
2023-01-22T14:22:16.263Z,102362.09
2023-01-22T14:24:43.135Z,102360.22
2023-01-22T14:27:10.039Z,102357.41
2023-01-22T14:29:37.094Z,102351.19
2023-01-22T14:32:04.180Z,102354.66
2023-01-22T14:34:31.004Z,102352.81
2023-01-22T14:36:57.918Z,102349.25
2023-01-22T14:39:24.870Z,102347.41
2023-01-22T14:41:51.803Z,102345.66
2023-01-22T14:44:19.540Z,102357.81
2023-01-22T14:46:46.534Z,102345.38
2023-01-22T14:49:13.465Z,102350.56
2023-01-22T14:51:40.306Z,102352.16
2023-01-22T14:54:07.304Z,102354.78
2023-01-22T14:56:34.348Z,102350.22
2023-01-22T14:59:01.366Z,102351.06
2023-01-22T15:01:28.388Z,102356.22
2023-01-22T15:03:55.399Z,102347.28
2023-01-22T15:06:24.174Z,102341.97
2023-01-22T15:08:51.324Z,102336.63
2023-01-22T15:11:18.189Z,102350.66
2023-01-22T15:13:45.152Z,102352.34
2023-01-22T15:16:12.478Z,102348.75
2023-01-22T15:18:40.020Z,102343.41
2023-01-22T15:21:07.458Z,102337.13
2023-01-22T15:23:34.937Z,102314.16
2023-01-22T15:26:08.459Z,102324.78
2023-01-22T15:28:36.141Z,102328.28
2023-01-22T15:31:08.145Z,102334.50
2023-01-22T15:33:36.642Z,102350.50
2023-01-22T15:36:05.510Z,102357.59
2023-01-22T15:38:32.531Z,102347.94
2023-01-22T15:41:07.353Z,102348.25
2023-01-22T15:43:34.320Z,102345.25
2023-01-22T15:46:01.348Z,102360.13
2023-01-22T15:48:28.430Z,102366.22
2023-01-22T15:50:55.306Z,102362.66
2023-01-22T15:53:22.411Z,102362.75
2023-01-22T15:55:50.645Z,102373.38
2023-01-22T15:58:17.562Z,102370.72
2023-01-22T16:00:44.514Z,102371.53
2023-01-22T16:03:12.454Z,102373.38
2023-01-22T16:05:39.420Z,102381.31
2023-01-22T16:08:06.570Z,102373.19
2023-01-22T16:10:36.644Z,102382.72
2023-01-22T16:13:03.766Z,102379.88
2023-01-22T16:15:30.760Z,102389.47
2023-01-22T16:17:58.370Z,102387.56
2023-01-22T16:20:25.420Z,102395.47
2023-01-22T16:22:52.522Z,102410.00
2023-01-22T16:25:19.818Z,102421.16
2023-01-22T16:27:46.880Z,102426.44
2023-01-22T16:30:16.881Z,102440.34
2023-01-22T16:32:46.981Z,102440.34
2023-01-22T16:35:14.055Z,102446.63
2023-01-22T16:37:44.653Z,102460.75
2023-01-22T16:40:15.934Z,102454.66
2023-01-22T16:42:59.024Z,102465.25
2023-01-22T16:45:26.312Z,102473.28
2023-01-22T16:47:53.861Z,102481.09
2023-01-22T16:50:21.276Z,102478.53
2023-01-22T16:52:48.582Z,102487.25
2023-01-22T16:55:15.607Z,102489.03
2023-01-22T16:57:42.733Z,102482.94
2023-01-22T17:00:10.742Z,102487.28
2023-01-22T17:02:38.046Z,102462.50
2023-01-22T17:05:09.162Z,102453.59
2023-01-22T17:07:36.044Z,102452.75
2023-01-22T17:10:06.475Z,102451.78
2023-01-22T17:12:34.075Z,102441.91
2023-01-22T17:15:01.142Z,102444.44
2023-01-22T17:17:28.175Z,102438.94
2023-01-22T17:19:55.785Z,102445.94
2023-01-22T17:22:24.406Z,102445.06
2023-01-22T17:24:52.830Z,102437.97
2023-01-22T17:27:21.268Z,102429.78
2023-01-22T17:29:48.237Z,102419.09
2023-01-22T17:32:15.228Z,102429.59
2023-01-22T17:34:42.410Z,102450.72
2023-01-22T17:37:13.899Z,102454.13
2023-01-22T17:39:43.126Z,102462.00
2023-01-22T17:42:10.159Z,102466.41
2023-01-22T17:44:38.276Z,102465.44
2023-01-22T17:47:06.068Z,102468.00
2023-01-22T17:49:35.190Z,102476.72
2023-01-22T17:52:03.229Z,102474.88
2023-01-22T17:54:30.480Z,102473.00
2023-01-22T17:56:57.759Z,102476.47
2023-01-22T17:59:27.165Z,102484.28
2023-01-22T18:01:54.455Z,102494.03
2023-01-22T18:04:23.192Z,102498.38
2023-01-22T18:06:54.041Z,102506.28
2023-01-22T18:09:22.530Z,102508.00
2023-01-22T18:11:49.990Z,102530.13
2023-01-22T18:14:25.307Z,102528.34
2023-01-22T18:16:52.731Z,102526.50
2023-01-22T18:19:23.544Z,102520.38
2023-01-22T18:21:50.860Z,102524.81
2023-01-22T18:24:18.418Z,102523.94
2023-01-22T18:26:45.435Z,102517.72
2023-01-22T18:29:12.468Z,102522.09
2023-01-22T18:31:39.993Z,102516.44
2023-01-22T18:34:08.046Z,102524.81
2023-01-22T18:36:38.271Z,102517.66
2023-01-22T18:39:09.139Z,102514.97
2023-01-22T18:41:37.146Z,102507.81
2023-01-22T18:44:04.448Z,102514.72
2023-01-22T18:46:34.210Z,102518.16
2023-01-22T18:49:03.869Z,102516.31
2023-01-22T18:51:32.663Z,102511.81
2023-01-22T18:54:01.378Z,102511.81
2023-01-22T18:56:28.610Z,102513.53
2023-01-22T18:58:56.734Z,102511.94
2023-01-22T19:01:29.970Z,102513.94
2023-01-22T19:04:00.018Z,102513.78
2023-01-22T19:06:30.127Z,102512.03
2023-01-22T19:09:02.933Z,102510.19
2023-01-22T19:11:33.198Z,102508.22
2023-01-22T19:14:00.832Z,102514.34
2023-01-22T19:16:28.653Z,102514.25
2023-01-22T19:18:57.461Z,102518.63
2023-01-22T19:21:26.374Z,102520.31
2023-01-22T19:23:57.132Z,102513.09
2023-01-22T19:26:32.966Z,102527.19
2023-01-22T19:29:07.777Z,102536.06
2023-01-22T19:31:38.482Z,102543.81
2023-01-22T19:34:07.453Z,102544.50
2023-01-22T19:36:38.559Z,102540.84
2023-01-22T19:39:12.031Z,102533.56
2023-01-22T19:41:40.452Z,102536.81
2023-01-22T19:44:09.393Z,102539.28
2023-01-22T19:46:40.655Z,102529.41
2023-01-22T19:49:09.233Z,102538.88
2023-01-22T19:51:37.194Z,102544.88
2023-01-22T19:54:08.376Z,102544.75
2023-01-22T19:56:37.454Z,102534.88
2023-01-22T19:59:11.299Z,102550.59
2023-01-22T20:01:39.748Z,102547.03
2023-01-22T20:04:14.309Z,102545.13
2023-01-22T20:06:44.827Z,102543.28
2023-01-22T20:09:14.901Z,102547.66
2023-01-22T20:11:42.241Z,102549.38
2023-01-22T20:14:10.606Z,102556.44
2023-01-22T20:16:37.900Z,102550.25
2023-01-22T20:19:05.273Z,102550.19
2023-01-22T20:21:37.008Z,102549.38
2023-01-22T20:24:08.009Z,102549.34
2023-01-22T20:26:38.128Z,102552.81
2023-01-22T20:29:06.603Z,102558.16
2023-01-22T20:31:34.638Z,102570.63
2023-01-22T20:34:03.553Z,102560.03
2023-01-22T20:36:32.942Z,102565.22
2023-01-22T20:39:02.659Z,102564.47
2023-01-22T20:41:31.318Z,102568.00
2023-01-22T20:43:58.933Z,102573.31
2023-01-22T20:46:28.803Z,102579.56
2023-01-22T20:49:00.164Z,102565.44
2023-01-22T20:51:29.386Z,102577.22
2023-01-22T20:53:58.379Z,102588.88
2023-01-22T20:56:31.454Z,102585.78
2023-01-22T20:59:10.714Z,102575.16
2023-01-22T21:01:38.116Z,102573.19
2023-01-22T21:04:07.390Z,102571.44
2023-01-22T21:06:38.988Z,102571.41
2023-01-22T21:09:09.416Z,102567.91
2023-01-22T21:11:38.247Z,102567.88
2023-01-22T21:14:07.984Z,102570.56
2023-01-22T21:16:38.468Z,102586.38
2023-01-22T21:19:27.665Z,102581.06
2023-01-22T21:21:55.826Z,102580.09
2023-01-22T21:24:24.851Z,102581.97
2023-01-22T21:26:52.175Z,102579.50
2023-01-22T21:29:24.209Z,102588.50
2023-01-22T21:31:53.279Z,102585.34
2023-01-22T21:34:23.469Z,102593.28
2023-01-22T21:36:55.786Z,102588.19
2023-01-22T21:39:25.229Z,102588.19
2023-01-22T21:42:12.957Z,102599.97
2023-01-22T21:45:12.904Z,102601.28
2023-01-22T21:47:40.098Z,102599.22
2023-01-22T21:50:12.606Z,102612.06
2023-01-22T21:52:40.228Z,102609.88
2023-01-22T21:55:08.634Z,102615.56
2023-01-22T21:57:38.222Z,102624.59
2023-01-22T22:00:06.289Z,102624.13
2023-01-22T22:02:33.350Z,102630.53
2023-01-22T22:05:01.177Z,102636.03
2023-01-22T22:07:28.309Z,102638.94
2023-01-22T22:09:57.801Z,102636.53
2023-01-22T22:12:26.311Z,102638.44
2023-01-22T22:14:54.269Z,102634.28
2023-01-22T22:17:21.275Z,102635.34
2023-01-22T22:19:48.451Z,102631.16
2023-01-22T22:22:17.261Z,102627.72
2023-01-22T22:24:44.238Z,102639.34
2023-01-22T22:27:13.371Z,102649.22
2023-01-22T22:29:40.503Z,102644.94
2023-01-22T22:32:07.833Z,102648.59
2023-01-22T22:34:35.132Z,102646.06
2023-01-22T22:37:02.357Z,102638.25
2023-01-22T22:39:29.636Z,102637.53
2023-01-22T22:41:56.662Z,102637.59
2023-01-22T22:44:23.957Z,102642.22
2023-01-22T22:46:51.064Z,102641.50
2023-01-22T22:49:18.261Z,102649.50
2023-01-22T22:51:47.282Z,102646.16
2023-01-22T22:54:17.457Z,102652.41
2023-01-22T22:56:46.087Z,102653.41
2023-01-22T22:59:13.551Z,102647.38
2023-01-22T23:01:41.276Z,102654.50
2023-01-22T23:04:09.037Z,102647.56
2023-01-22T23:06:36.794Z,102661.72
2023-01-22T23:09:06.634Z,102660.91
2023-01-22T23:11:35.024Z,102657.50
2023-01-22T23:14:02.979Z,102660.22
2023-01-22T23:16:32.657Z,102663.88
2023-01-22T23:19:03.094Z,102656.91
2023-01-22T23:21:30.236Z,102663.13
2023-01-22T23:23:57.678Z,102656.16
2023-01-22T23:26:30.132Z,102658.88
2023-01-22T23:29:00.845Z,102655.47
2023-01-22T23:31:29.959Z,102654.59
2023-01-22T23:33:57.299Z,102659.06
2023-01-22T23:36:26.366Z,102659.19
2023-01-22T23:38:53.841Z,102661.09
2023-01-22T23:41:21.702Z,102664.63
2023-01-22T23:43:49.054Z,102658.53
2023-01-22T23:46:27.979Z,102652.41
2023-01-22T23:48:56.326Z,102655.13
2023-01-22T23:51:23.828Z,102649.06
2023-01-22T23:53:52.131Z,102652.63
2023-01-22T23:56:23.781Z,102653.56
2023-01-22T23:58:54.123Z,102651.88
